Sheridan, WY (82801)

12:46 PM MDT on July 28, 2016 (GMT -0600)
South Sheridan | | Change Station

Elev 3770 ft 44.79 °N, 106.95 °W | Updated 0 second ago

Mostly Cloudy
Mostly Cloudy
75.4 °F
Feels Like 78 °F
N
2.0
Wind Variable Wind from NNE
Gusts 2.5 mph

Today
High -- | Low -- °F
--% Chance of Precip.
Yesterday
High -- | Low -- °F
Precip. -- in
Pressure 30.12 in
Visibility 10.0 miles
Clouds Mostly Cloudy 3900 ft
Heat Index 78 °F
Dew Point 54 °F
Humidity 48%
Rainfall 0.05 in
Snow Depth Not available.
5:50 AM 8:37 PM
Waning Crescent, 30% visible
METAR KSHR 281753Z AUTO 34008KT 10SM BKN039 23/12 A3021 RMK AO2 SLP197 T02330122 10239 20156 58004
Pressure 30.12 in
Visibility 10.0 miles
Clouds Mostly Cloudy 3900 ft
Heat Index 78 °F
Dew Point 54 °F
Humidity 48%
Rainfall 0.05 in
Snow Depth Not available.
5:50 AM 8:37 PM
Waning Crescent, 30% visible
METAR KSHR 281753Z AUTO 34008KT 10SM BKN039 23/12 A3021 RMK AO2 SLP197 T02330122 10239 20156 58004

10-Day Weather Forecast

Almanac

Astronomy

Jul. 28, 2016 Rise Set
Actual Time
Civil Twilight
Nautical Twilight
Astronomical Twilight
Moon
Length of Visible Light
Length of Day
Tomorrow will be .
, % of the Moon is Illuminated

Today's Extremes

State Highs State Lows

Community

WunderPhotos

Upload Photos

1,928,174 photos uploaded!

WunderBlog® & News

Nearby

Air Quality

  Air Quality AQ Index Pollutant
Not available.

Snow Depth

Station Depth Elevation

Earthquake Activity

City Distance Mag. Time & Date
Minimum magnitude displayed is 2.5.

Coastal Water Temperatures

Place Temperature

Stations

Nearby Weather Stations

Station Location Temp. Windchill Dew Point Humidity Wind Precip. Elev Updated Type
                   

Watches & Warnings

There are currently no watches in effect.